Time;durP1;ratioP1;P1;durP2;ratioP2;P2;SDS_P1;SDS_P2;PMS_P1;PMS_P2;Temp;Humidity;BMP_temperature;BMP_pressure;BME280_temperature;BME280_humidity;BME280_pressure;Samples;Min_cycle;Max_cycle;Signal;HPM_P1;HPM_P2
2022/01/01 00:01:45;;;;;;;;;;;5.30;99.90;;;;;;5026918;28;19991;-79
2022/01/01 00:04:10;;;;;;;;;;;5.10;99.90;;;;;;5021904;28;19920;-78
2022/01/01 00:06:36;;;;;;;;;;;5.00;99.90;;;;;;5032127;28;20007;-79
2022/01/01 00:09:02;;;;;;;;;;;4.90;99.90;;;;;;5023421;28;20304;-79
2022/01/01 00:11:27;;;;;;;;;;;4.90;99.90;;;;;;5022711;28;19924;-79
2022/01/01 00:13:53;;;;;;;;;;;4.90;99.90;;;;;;5022908;28;19913;-77
2022/01/01 00:16:19;;;;;;;;;;;5.00;99.90;;;;;;5023276;28;19920;-79
2022/01/01 00:18:44;;;;;;;;;;;5.00;99.90;;;;;;5020456;28;19940;-78
2022/01/01 00:21:10;;;;;;;;;;;5.10;99.90;;;;;;5023328;28;20316;-78
2022/01/01 00:23:35;;;;;;;;;;;5.10;99.90;;;;;;5021968;28;19917;-80
2022/01/01 00:26:01;;;;;;;;;;;5.10;99.90;;;;;;5023631;28;19963;-77
2022/01/01 00:28:26;;;;;;;;;;;5.10;99.90;;;;;;5022908;28;19917;-76
2022/01/01 00:30:52;;;;;;;;;;;5.10;99.90;;;;;;5023765;28;19953;-78
2022/01/01 00:33:17;;;;;;;;;;;5.10;99.90;;;;;;5023272;28;19917;-78
2022/01/01 00:35:43;;;;;;;;;;;5.20;99.90;;;;;;5024758;28;19914;-79
2022/01/01 00:38:08;;;;;;;;;;;5.20;99.90;;;;;;5017175;28;19918;-78
2022/01/01 00:40:34;;;;;;;;;;;5.20;99.90;;;;;;5025047;28;20296;-80
2022/01/01 00:43:02;;;;;;;;;;;5.10;99.90;;;;;;5022467;28;19913;-79
2022/01/01 00:45:28;;;;;;;;;;;5.10;99.90;;;;;;5021633;28;20384;-79
2022/01/01 00:47:53;;;;;;;;;;;5.00;99.90;;;;;;5022647;28;19956;-79
2022/01/01 00:50:19;;;;;;;;;;;5.10;99.90;;;;;;5022587;28;20580;-80
2022/01/01 00:52:45;;;;;;;;;;;5.10;99.90;;;;;;5027134;28;20367;-80
2022/01/01 00:55:11;;;;;;;;;;;5.10;99.90;;;;;;5040886;28;19917;-80
2022/01/01 00:57:37;;;;;;;;;;;5.10;99.90;;;;;;5025731;28;19916;-78
2022/01/01 01:00:03;;;;;;;;;;;5.10;99.90;;;;;;5042067;28;20010;-80
2022/01/01 01:02:29;;;;;;;;;;;5.00;99.90;;;;;;5041225;28;19917;-79
2022/01/01 01:04:54;;;;;;;;;;;5.00;99.90;;;;;;5023660;28;19916;-80
2022/01/01 01:07:20;;;;;;;;;;;5.00;99.90;;;;;;5023078;28;19913;-80
2022/01/01 01:09:45;;;;;;;;;;;5.00;99.90;;;;;;5045626;28;19912;-79
2022/01/01 01:12:11;;;;;;;;;;;4.90;99.90;;;;;;5025671;28;19924;-79
2022/01/01 01:14:41;;;;;;;;;;;4.90;99.90;;;;;;5022673;28;19920;-79
2022/01/01 01:17:07;;;;;;;;;;;4.90;99.90;;;;;;5043063;28;19909;-78
2022/01/01 01:19:32;;;;;;;;;;;5.00;99.90;;;;;;5039565;28;19912;-78
2022/01/01 01:21:58;;;;;;;;;;;4.90;99.90;;;;;;5043384;28;19909;-77
2022/01/01 01:24:25;;;;;;;;;;;5.00;99.90;;;;;;5040618;28;19920;-80
2022/01/01 01:26:51;;;;;;;;;;;5.10;99.90;;;;;;5008377;28;19923;-78
2022/01/01 01:29:18;;;;;;;;;;;5.00;99.90;;;;;;5044147;28;19917;-78
2022/01/01 01:31:43;;;;;;;;;;;5.00;99.90;;;;;;5019982;28;19967;-78
2022/01/01 01:34:09;;;;;;;;;;;5.00;99.90;;;;;;5042687;28;19908;-77
2022/01/01 01:36:34;;;;;;;;;;;5.00;99.90;;;;;;5028735;28;20007;-83
2022/01/01 01:39:00;;;;;;;;;;;4.90;99.90;;;;;;5044252;28;20361;-76
2022/01/01 01:41:29;;;;;;;;;;;4.80;99.90;;;;;;5024685;28;19917;-79
2022/01/01 01:43:56;;;;;;;;;;;5.00;99.90;;;;;;5042516;28;19990;-78
2022/01/01 01:46:22;;;;;;;;;;;5.10;99.90;;;;;;5040742;28;20391;-79
2022/01/01 01:48:48;;;;;;;;;;;5.00;99.90;;;;;;5037468;28;19963;-80
2022/01/01 01:51:14;;;;;;;;;;;4.90;99.90;;;;;;5041308;28;19916;-79
2022/01/01 01:53:39;;;;;;;;;;;4.90;99.90;;;;;;5019700;28;19921;-77
2022/01/01 01:56:05;;;;;;;;;;;4.80;99.90;;;;;;5040512;28;20504;-79
2022/01/01 01:58:30;;;;;;;;;;;4.80;99.90;;;;;;5023388;28;20443;-80
2022/01/01 02:01:20;;;;;;;;;;;4.80;99.90;;;;;;5043303;28;19916;-80
2022/01/01 02:03:45;;;;;;;;;;;4.70;99.90;;;;;;5038399;28;20356;-79
2022/01/01 02:06:11;;;;;;;;;;;4.70;99.90;;;;;;5040173;28;19916;-80
2022/01/01 02:08:36;;;;;;;;;;;4.60;99.90;;;;;;5039652;28;19912;-79
2022/01/01 02:11:02;;;;;;;;;;;4.70;99.90;;;;;;5039678;28;19917;-80
2022/01/01 02:18:48;;;;;;;;;;;4.70;99.90;;;;;;5039182;28;20390;-78
2022/01/01 02:21:14;;;;;;;;;;;4.70;99.90;;;;;;5042522;28;19909;-78
2022/01/01 02:23:43;;;;;;;;;;;4.60;99.90;;;;;;5042045;28;19913;-79
2022/01/01 02:26:12;;;;;;;;;;;4.60;99.90;;;;;;5038956;28;19963;-79
2022/01/01 02:28:42;;;;;;;;;;;4.50;99.90;;;;;;5041821;28;20023;-80
2022/01/01 02:31:08;;;;;;;;;;;4.40;99.90;;;;;;5013938;28;19981;-81
2022/01/01 02:33:34;;;;;;;;;;;4.40;99.90;;;;;;5016429;28;19913;-80
2022/01/01 02:36:00;;;;;;;;;;;4.40;99.90;;;;;;5042461;28;19909;-79
2022/01/01 02:38:26;;;;;;;;;;;4.30;99.90;;;;;;5041697;28;20391;-80
2022/01/01 02:40:51;;;;;;;;;;;4.40;99.90;;;;;;5046599;28;19961;-80
2022/01/01 02:43:18;;;;;;;;;;;4.40;99.90;;;;;;5043515;28;19917;-80
2022/01/01 02:45:43;;;;;;;;;;;4.60;99.90;;;;;;5047488;28;19921;-80
2022/01/01 02:48:09;;;;;;;;;;;4.40;99.90;;;;;;5046360;28;20292;-77
2022/01/01 02:50:34;;;;;;;;;;;4.50;99.90;;;;;;5046847;28;19921;-78
2022/01/01 02:53:00;;;;;;;;;;;4.40;99.90;;;;;;5044294;28;19921;-79
2022/01/01 02:55:25;;;;;;;;;;;4.50;99.90;;;;;;5046821;28;20364;-81
2022/01/01 02:57:51;;;;;;;;;;;4.40;99.90;;;;;;5025487;28;20415;-80
2022/01/01 03:00:17;;;;;;;;;;;4.30;99.90;;;;;;5049443;28;19947;-79
2022/01/01 03:02:45;;;;;;;;;;;4.20;99.90;;;;;;5024616;28;20387;-81
2022/01/01 03:05:10;;;;;;;;;;;4.20;99.90;;;;;;5026180;28;20451;-79
2022/01/01 03:07:36;;;;;;;;;;;4.30;99.90;;;;;;5026068;28;20004;-80
2022/01/01 03:10:03;;;;;;;;;;;4.40;99.90;;;;;;5044248;28;19940;-81
2022/01/01 03:12:28;;;;;;;;;;;4.30;99.90;;;;;;5026379;28;20363;-80
2022/01/01 03:14:54;;;;;;;;;;;4.40;99.90;;;;;;5043045;28;19921;-80
2022/01/01 03:17:19;;;;;;;;;;;4.30;99.90;;;;;;5023797;28;20353;-80
2022/01/01 03:19:45;;;;;;;;;;;4.20;99.90;;;;;;5007172;28;20313;-81
2022/01/01 03:22:10;;;;;;;;;;;4.10;99.90;;;;;;5046117;28;19999;-79
2022/01/01 03:24:36;;;;;;;;;;;4.20;99.90;;;;;;5042848;28;19925;-80
2022/01/01 03:27:01;;;;;;;;;;;4.20;99.90;;;;;;5026148;28;19966;-81
2022/01/01 03:29:30;;;;;;;;;;;4.20;99.90;;;;;;5027115;28;20015;-78
2022/01/01 03:31:55;;;;;;;;;;;4.30;99.90;;;;;;5043680;28;19912;-81
2022/01/01 03:34:21;;;;;;;;;;;4.40;99.90;;;;;;5042440;28;19963;-78
2022/01/01 03:36:47;;;;;;;;;;;4.30;99.90;;;;;;5046832;28;19966;-78
2022/01/01 03:39:12;;;;;;;;;;;4.40;99.90;;;;;;5025446;28;19921;-79
2022/01/01 03:41:38;;;;;;;;;;;4.40;99.90;;;;;;5015228;28;19951;-81
2022/01/01 03:44:03;;;;;;;;;;;4.30;99.90;;;;;;5045076;28;19916;-80
2022/01/01 03:46:29;;;;;;;;;;;4.20;99.90;;;;;;5043360;28;19916;-80
2022/01/01 03:48:55;;;;;;;;;;;4.20;99.90;;;;;;5042287;28;20317;-78
2022/01/01 03:51:20;;;;;;;;;;;4.30;99.90;;;;;;5043813;28;19917;-80
2022/01/01 03:53:46;;;;;;;;;;;4.20;99.90;;;;;;5045097;28;19925;-80
2022/01/01 03:56:11;;;;;;;;;;;4.00;99.90;;;;;;5027560;28;19967;-78
2022/01/01 03:58:37;;;;;;;;;;;4.10;99.90;;;;;;5007869;28;20323;-78
2022/01/01 04:01:03;;;;;;;;;;;4.00;99.90;;;;;;5057396;28;19985;-81
2022/01/01 04:03:28;;;;;;;;;;;4.00;99.90;;;;;;5058878;28;20008;-79
2022/01/01 04:05:54;;;;;;;;;;;4.00;99.90;;;;;;5042892;28;19917;-81
2022/01/01 04:08:19;;;;;;;;;;;4.00;99.90;;;;;;5061316;28;19976;-80
2022/01/01 04:10:45;;;;;;;;;;;3.90;99.90;;;;;;5028827;28;20386;-80
2022/01/01 04:13:11;;;;;;;;;;;3.90;99.90;;;;;;5059290;28;19923;-79
2022/01/01 04:15:37;;;;;;;;;;;3.80;99.90;;;;;;5061145;28;19909;-81
2022/01/01 04:18:08;;;;;;;;;;;3.90;99.90;;;;;;5044486;28;20027;-79
2022/01/01 04:20:34;;;;;;;;;;;3.90;99.90;;;;;;5061717;28;19968;-79
2022/01/01 04:22:59;;;;;;;;;;;3.90;99.90;;;;;;5055366;28;19932;-79
2022/01/01 04:25:25;;;;;;;;;;;3.90;99.90;;;;;;5049852;28;19916;-79
2022/01/01 04:27:52;;;;;;;;;;;3.90;99.90;;;;;;5043779;28;19919;-79
2022/01/01 04:30:17;;;;;;;;;;;3.90;99.90;;;;;;5022202;28;20386;-79
2022/01/01 04:32:43;;;;;;;;;;;3.90;99.90;;;;;;5041270;28;19913;-77
2022/01/01 04:35:09;;;;;;;;;;;3.90;99.90;;;;;;5043805;28;20011;-79
2022/01/01 04:37:35;;;;;;;;;;;4.00;99.90;;;;;;5043861;28;19992;-78
2022/01/01 04:40:01;;;;;;;;;;;4.00;99.90;;;;;;5044612;28;19915;-78
2022/01/01 04:42:27;;;;;;;;;;;3.90;99.90;;;;;;5025503;28;19916;-77
2022/01/01 04:44:52;;;;;;;;;;;3.90;99.90;;;;;;5041747;28;20007;-79
2022/01/01 04:47:18;;;;;;;;;;;4.00;99.90;;;;;;5043883;28;20354;-78
2022/01/01 04:49:44;;;;;;;;;;;4.00;99.90;;;;;;5040321;28;19920;-80
2022/01/01 04:52:09;;;;;;;;;;;3.90;99.90;;;;;;5044007;28;20334;-80
2022/01/01 04:54:39;;;;;;;;;;;3.70;99.90;;;;;;5023330;28;19931;-80
2022/01/01 04:57:05;;;;;;;;;;;3.70;99.90;;;;;;5042898;28;19940;-79
2022/01/01 04:59:30;;;;;;;;;;;3.60;99.90;;;;;;5043696;28;19909;-79
2022/01/01 05:01:56;;;;;;;;;;;3.60;99.90;;;;;;5023681;28;19913;-78
2022/01/01 05:04:21;;;;;;;;;;;3.60;99.90;;;;;;5040737;28;19917;-80
2022/01/01 05:06:49;;;;;;;;;;;3.70;99.90;;;;;;5041289;28;19925;-81
2022/01/01 05:09:18;;;;;;;;;;;3.70;99.90;;;;;;5022669;28;19909;-78
2022/01/01 05:11:44;;;;;;;;;;;3.60;99.90;;;;;;5043430;28;20000;-79
2022/01/01 05:14:10;;;;;;;;;;;3.50;99.90;;;;;;5040000;28;20027;-78
2022/01/01 05:16:36;;;;;;;;;;;3.40;99.90;;;;;;5044060;28;19912;-80
2022/01/01 05:19:02;;;;;;;;;;;3.30;99.90;;;;;;5030974;28;20704;-82
2022/01/01 05:21:31;;;;;;;;;;;3.20;99.90;;;;;;5023079;28;20410;-79
2022/01/01 05:23:56;;;;;;;;;;;3.10;99.90;;;;;;5041847;28;20341;-81
2022/01/01 05:26:22;;;;;;;;;;;3.30;99.90;;;;;;5040560;28;20011;-78
2022/01/01 05:28:49;;;;;;;;;;;3.30;99.90;;;;;;5043003;28;19919;-81
2022/01/01 05:31:19;;;;;;;;;;;3.40;99.90;;;;;;5042450;28;19917;-80
2022/01/01 05:33:45;;;;;;;;;;;3.20;99.90;;;;;;5039134;28;20094;-77
2022/01/01 05:36:11;;;;;;;;;;;3.10;99.90;;;;;;5040888;28;19920;-79
2022/01/01 05:38:37;;;;;;;;;;;3.00;99.90;;;;;;5045584;28;19996;-81
2022/01/01 05:41:02;;;;;;;;;;;3.10;99.90;;;;;;5043406;28;19917;-79
2022/01/01 05:43:28;;;;;;;;;;;3.10;99.90;;;;;;5023809;28;19917;-78
2022/01/01 05:45:53;;;;;;;;;;;3.20;99.90;;;;;;5040629;28;19971;-78
2022/01/01 05:48:19;;;;;;;;;;;3.10;99.90;;;;;;5047368;28;19958;-78
2022/01/01 05:50:44;;;;;;;;;;;3.20;99.90;;;;;;5025078;28;20011;-80
2022/01/01 05:53:10;;;;;;;;;;;3.20;99.90;;;;;;5021103;28;19921;-78
2022/01/01 05:55:36;;;;;;;;;;;3.10;99.90;;;;;;5020163;28;19913;-78
2022/01/01 05:58:01;;;;;;;;;;;3.20;99.90;;;;;;5024790;28;19908;-79
2022/01/01 06:00:27;;;;;;;;;;;3.10;99.90;;;;;;5022937;28;19921;-81
2022/01/01 06:02:52;;;;;;;;;;;3.10;99.90;;;;;;5039698;28;19920;-80
2022/01/01 06:05:18;;;;;;;;;;;3.10;99.90;;;;;;5042433;28;19919;-81
2022/01/01 06:07:43;;;;;;;;;;;3.20;99.90;;;;;;5040194;28;20364;-80
2022/01/01 06:10:09;;;;;;;;;;;3.20;99.90;;;;;;5039177;28;19917;-79
2022/01/01 06:12:39;;;;;;;;;;;3.20;99.90;;;;;;5041528;28;20473;-79
2022/01/01 06:15:05;;;;;;;;;;;3.40;99.90;;;;;;5041781;28;19992;-81
2022/01/01 06:17:30;;;;;;;;;;;3.30;99.90;;;;;;5022797;28;20007;-82
2022/01/01 06:19:56;;;;;;;;;;;3.40;99.90;;;;;;5039311;28;19949;-80
2022/01/01 06:22:21;;;;;;;;;;;3.30;99.90;;;;;;5038398;28;20424;-79
2022/01/01 06:24:47;;;;;;;;;;;3.30;99.90;;;;;;5024508;28;20693;-79
2022/01/01 06:27:13;;;;;;;;;;;3.20;99.90;;;;;;5024569;28;20394;-81
2022/01/01 06:29:39;;;;;;;;;;;3.30;99.90;;;;;;5039166;28;19921;-82
2022/01/01 06:32:04;;;;;;;;;;;3.40;99.90;;;;;;5040334;28;20363;-81
2022/01/01 06:34:30;;;;;;;;;;;3.30;99.90;;;;;;5040496;28;19920;-80
2022/01/01 06:36:55;;;;;;;;;;;3.30;99.90;;;;;;5040783;28;19916;-78
2022/01/01 06:39:21;;;;;;;;;;;3.30;99.90;;;;;;5007337;28;20384;-80
2022/01/01 06:41:46;;;;;;;;;;;3.10;99.90;;;;;;5040986;28;19936;-82
2022/01/01 06:44:12;;;;;;;;;;;3.00;99.90;;;;;;5020776;28;19924;-80
2022/01/01 06:46:37;;;;;;;;;;;3.00;99.90;;;;;;5023681;28;19921;-80
2022/01/01 06:49:03;;;;;;;;;;;3.00;99.90;;;;;;5050384;28;19915;-79
2022/01/01 06:51:29;;;;;;;;;;;3.20;99.90;;;;;;5038616;28;19908;-78
2022/01/01 06:53:54;;;;;;;;;;;3.30;99.90;;;;;;5039124;28;19925;-78
2022/01/01 06:56:20;;;;;;;;;;;3.20;99.90;;;;;;5042108;28;19913;-81
2022/01/01 06:58:45;;;;;;;;;;;3.20;99.90;;;;;;5020499;28;19920;-82
2022/01/01 07:01:11;;;;;;;;;;;3.10;99.90;;;;;;5041869;28;20284;-79
2022/01/01 07:03:36;;;;;;;;;;;3.10;99.90;;;;;;5022972;28;19917;-78
2022/01/01 07:06:02;;;;;;;;;;;2.90;99.90;;;;;;5021969;28;19931;-81
2022/01/01 07:08:27;;;;;;;;;;;2.80;99.90;;;;;;5039882;28;20299;-79
2022/01/01 07:10:53;;;;;;;;;;;2.90;99.90;;;;;;5022345;28;19912;-80
2022/01/01 07:13:19;;;;;;;;;;;3.00;99.90;;;;;;5042057;28;20354;-79
2022/01/01 07:15:44;;;;;;;;;;;3.00;99.90;;;;;;5038519;28;19917;-80
2022/01/01 07:18:10;;;;;;;;;;;3.10;99.90;;;;;;5040800;28;19960;-77
2022/01/01 07:20:35;;;;;;;;;;;3.00;99.90;;;;;;5039656;28;20323;-80
2022/01/01 07:23:01;;;;;;;;;;;3.10;99.90;;;;;;5040039;28;19924;-80
2022/01/01 07:25:27;;;;;;;;;;;3.10;99.90;;;;;;5029740;28;20936;-79
2022/01/01 07:27:52;;;;;;;;;;;3.20;99.90;;;;;;5045432;28;19912;-79
2022/01/01 07:30:18;;;;;;;;;;;3.10;99.90;;;;;;5029675;28;19913;-81
2022/01/01 07:32:45;;;;;;;;;;;3.10;99.90;;;;;;5042428;28;19909;-78
2022/01/01 07:35:11;;;;;;;;;;;3.00;99.90;;;;;;5045277;28;19917;-79
2022/01/01 07:37:36;;;;;;;;;;;3.00;99.90;;;;;;5044036;28;19912;-79
2022/01/01 07:40:03;;;;;;;;;;;3.00;99.90;;;;;;5028858;28;20006;-80
2022/01/01 07:42:28;;;;;;;;;;;3.10;99.90;;;;;;5043601;28;19909;-82
2022/01/01 07:44:54;;;;;;;;;;;3.20;99.90;;;;;;5010336;28;19916;-83
2022/01/01 07:47:19;;;;;;;;;;;3.40;99.90;;;;;;5041862;28;19917;-82
2022/01/01 07:49:45;;;;;;;;;;;3.40;99.90;;;;;;5027059;28;19917;-82
2022/01/01 07:52:11;;;;;;;;;;;3.40;99.90;;;;;;5027269;28;19917;-83
2022/01/01 07:54:36;;;;;;;;;;;3.40;99.90;;;;;;5040899;28;20295;-82
2022/01/01 07:57:02;;;;;;;;;;;3.30;99.90;;;;;;5043117;28;20361;-82
2022/01/01 07:59:28;;;;;;;;;;;3.30;99.90;;;;;;5025833;28;19927;-83
2022/01/01 08:01:53;;;;;;;;;;;3.20;99.90;;;;;;5041324;28;19969;-82
2022/01/01 08:04:19;;;;;;;;;;;3.10;99.90;;;;;;5026978;28;19913;-81
2022/01/01 08:06:44;;;;;;;;;;;3.10;99.90;;;;;;5029508;28;19916;-83
2022/01/01 08:09:10;;;;;;;;;;;3.10;99.90;;;;;;5015138;28;19923;-83
2022/01/01 08:11:35;;;;;;;;;;;3.10;99.90;;;;;;5041287;28;20299;-82
2022/01/01 08:14:01;;;;;;;;;;;3.10;99.90;;;;;;5026318;28;19913;-82
2022/01/01 08:16:26;;;;;;;;;;;3.10;99.90;;;;;;5013674;28;19913;-83
2022/01/01 08:18:52;;;;;;;;;;;3.20;99.90;;;;;;5041120;28;19963;-82
2022/01/01 08:21:17;;;;;;;;;;;3.20;99.90;;;;;;5030955;28;19920;-83
2022/01/01 08:23:43;;;;;;;;;;;3.20;99.90;;;;;;5026345;28;20262;-81
2022/01/01 08:26:08;;;;;;;;;;;3.20;99.90;;;;;;5024969;28;20428;-82
2022/01/01 08:28:34;;;;;;;;;;;3.20;99.90;;;;;;5043201;28;19917;-84
2022/01/01 08:30:59;;;;;;;;;;;3.10;99.90;;;;;;5023955;28;19943;-82
2022/01/01 08:33:25;;;;;;;;;;;3.20;99.90;;;;;;5046541;28;20390;-81
2022/01/01 08:35:50;;;;;;;;;;;3.20;99.90;;;;;;5026849;28;19923;-79
2022/01/01 08:38:16;;;;;;;;;;;3.30;99.90;;;;;;5044345;28;19920;-80
2022/01/01 08:40:42;;;;;;;;;;;3.30;99.90;;;;;;5041602;28;19920;-83
2022/01/01 08:43:07;;;;;;;;;;;3.40;99.90;;;;;;5041850;28;20002;-80
2022/01/01 08:45:35;;;;;;;;;;;3.40;99.90;;;;;;5047299;28;20002;-82
2022/01/01 08:48:00;;;;;;;;;;;3.50;99.90;;;;;;5042423;28;19970;-81
2022/01/01 08:50:26;;;;;;;;;;;3.60;99.90;;;;;;5011628;28;20003;-79
2022/01/01 08:52:52;;;;;;;;;;;3.70;99.90;;;;;;5017592;28;20012;-82
2022/01/01 08:55:17;;;;;;;;;;;3.80;99.90;;;;;;5025000;28;19917;-80
2022/01/01 08:57:43;;;;;;;;;;;3.90;99.90;;;;;;5052668;28;19920;-80
2022/01/01 09:00:09;;;;;;;;;;;4.00;99.90;;;;;;5021501;28;20395;-81
2022/01/01 09:02:35;;;;;;;;;;;4.20;99.90;;;;;;5021440;28;19940;-82
2022/01/01 09:05:01;;;;;;;;;;;4.30;99.90;;;;;;5020290;28;19914;-81
2022/01/01 09:07:30;;;;;;;;;;;4.50;99.90;;;;;;5026252;28;19916;-80
2022/01/01 09:10:00;;;;;;;;;;;4.70;99.90;;;;;;5022532;28;19913;-80
2022/01/01 09:12:25;;;;;;;;;;;4.70;99.90;;;;;;5044372;28;20288;-83
2022/01/01 09:14:51;;;;;;;;;;;4.80;99.90;;;;;;5022359;28;19913;-82
2022/01/01 09:17:17;;;;;;;;;;;4.90;99.90;;;;;;5021451;28;20369;-85
2022/01/01 09:19:42;;;;;;;;;;;5.00;99.90;;;;;;5021466;28;19956;-82
2022/01/01 09:22:08;;;;;;;;;;;5.10;99.90;;;;;;5022503;28;19932;-82
2022/01/01 09:24:34;;;;;;;;;;;5.20;99.90;;;;;;5024244;28;20338;-83
2022/01/01 09:26:59;;;;;;;;;;;5.30;99.90;;;;;;5023034;28;20351;-82
2022/01/01 09:29:25;;;;;;;;;;;5.40;99.90;;;;;;5021353;28;19913;-82
2022/01/01 09:31:50;;;;;;;;;;;5.50;99.90;;;;;;5023401;28;19913;-82
2022/01/01 09:34:16;;;;;;;;;;;5.60;99.90;;;;;;5018581;28;19916;-82
2022/01/01 09:36:42;;;;;;;;;;;5.70;99.90;;;;;;5026702;28;20009;-81
2022/01/01 09:39:08;;;;;;;;;;;5.80;99.90;;;;;;5021751;28;20288;-82
2022/01/01 09:41:33;;;;;;;;;;;5.90;99.90;;;;;;5022347;28;20367;-83
2022/01/01 09:43:59;;;;;;;;;;;5.90;99.90;;;;;;5025335;28;19917;-84
2022/01/01 09:46:28;;;;;;;;;;;6.00;99.90;;;;;;5022184;28;20404;-83
2022/01/01 09:48:54;;;;;;;;;;;6.10;99.90;;;;;;5004622;28;19914;-80
2022/01/01 09:51:20;;;;;;;;;;;6.20;99.90;;;;;;5023224;28;20020;-82
2022/01/01 09:53:46;;;;;;;;;;;6.20;99.90;;;;;;5030851;28;19924;-81
2022/01/01 09:56:11;;;;;;;;;;;6.20;99.90;;;;;;5042595;28;19908;-80
2022/01/01 09:58:38;;;;;;;;;;;6.20;99.90;;;;;;5044730;28;19916;-82
2022/01/01 10:01:06;;;;;;;;;;;6.20;99.90;;;;;;5039394;28;19912;-81
2022/01/01 10:03:48;;;;;;;;;;;6.30;99.90;;;;;;5024069;28;20317;-81
2022/01/01 10:06:13;;;;;;;;;;;6.40;99.90;;;;;;5052069;28;19912;-84
2022/01/01 10:08:59;;;;;;;;;;;6.50;99.90;;;;;;5070527;28;19968;-84
2022/01/01 10:11:25;;;;;;;;;;;6.50;99.90;;;;;;5022580;28;20379;-85
2022/01/01 10:13:51;;;;;;;;;;;6.60;99.90;;;;;;5024004;28;20007;-85
2022/01/01 10:16:17;;;;;;;;;;;6.70;99.90;;;;;;5021701;28;20015;-85
2022/01/01 10:18:43;;;;;;;;;;;6.70;99.90;;;;;;5023230;28;20047;-85
2022/01/01 10:21:28;;;;;;;;;;;6.60;99.90;;;;;;5039710;28;19912;-84
2022/01/01 10:23:55;;;;;;;;;;;6.80;99.90;;;;;;5009588;28;19924;-87
2022/01/01 10:29:09;;;;;;;;;;;7.10;99.90;;;;;;5041901;28;19920;-85
2022/01/01 10:31:35;;;;;;;;;;;7.20;99.90;;;;;;5023513;28;19962;-86
2022/01/01 10:34:01;;;;;;;;;;;7.10;99.90;;;;;;5005287;28;20350;-85
2022/01/01 10:36:29;;;;;;;;;;;7.20;99.90;;;;;;5022417;28;19913;-85
2022/01/01 10:38:55;;;;;;;;;;;7.20;99.90;;;;;;5021210;28;19909;-85
2022/01/01 10:41:21;;;;;;;;;;;7.20;99.90;;;;;;5042289;28;19913;-85
2022/01/01 10:43:46;;;;;;;;;;;7.30;99.90;;;;;;5004761;28;19955;-85
2022/01/01 10:46:13;;;;;;;;;;;7.50;99.90;;;;;;5023324;28;19921;-85
2022/01/01 10:48:56;;;;;;;;;;;7.60;99.90;;;;;;5022136;28;20066;-84
2022/01/01 10:51:21;;;;;;;;;;;7.50;99.90;;;;;;5024967;28;19920;-85
2022/01/01 10:53:59;;;;;;;;;;;7.60;99.90;;;;;;5020857;28;20132;-85
2022/01/01 10:56:24;;;;;;;;;;;7.70;99.90;;;;;;5023544;28;19995;-85
2022/01/01 10:59:03;;;;;;;;;;;7.70;99.90;;;;;;5021839;28;20412;-84
2022/01/01 11:01:29;;;;;;;;;;;7.80;99.90;;;;;;5005878;28;19921;-83
2022/01/01 11:03:55;;;;;;;;;;;7.80;99.90;;;;;;5029114;28;19913;-84
2022/01/01 11:06:21;;;;;;;;;;;7.90;99.90;;;;;;5025230;28;19920;-84
2022/01/01 11:08:46;;;;;;;;;;;8.00;99.90;;;;;;5031946;28;19952;-84
2022/01/01 11:11:13;;;;;;;;;;;8.00;99.90;;;;;;5025792;28;19947;-84
2022/01/01 11:13:39;;;;;;;;;;;8.20;99.90;;;;;;5024361;28;19909;-85
2022/01/01 11:16:06;;;;;;;;;;;8.20;99.90;;;;;;5022808;28;19917;-84
2022/01/01 11:18:31;;;;;;;;;;;8.30;99.90;;;;;;5024385;28;19921;-84
2022/01/01 11:20:58;;;;;;;;;;;8.40;99.90;;;;;;5007959;28;19920;-84
2022/01/01 11:23:24;;;;;;;;;;;8.40;99.90;;;;;;5026171;28;20045;-85
2022/01/01 11:25:51;;;;;;;;;;;8.60;99.90;;;;;;5004472;28;19944;-85
2022/01/01 11:28:17;;;;;;;;;;;8.60;99.90;;;;;;5025969;28;19913;-84
2022/01/01 11:30:46;;;;;;;;;;;8.70;99.90;;;;;;5026170;28;20004;-84
2022/01/01 11:33:15;;;;;;;;;;;8.60;99.90;;;;;;5028178;28;19933;-84
2022/01/01 11:35:43;;;;;;;;;;;8.70;99.90;;;;;;5024260;28;19917;-84
2022/01/01 11:38:10;;;;;;;;;;;8.70;99.90;;;;;;5021946;28;20372;-84
2022/01/01 11:40:45;;;;;;;;;;;9.00;99.90;;;;;;5028014;28;20327;-84
2022/01/01 11:43:29;;;;;;;;;;;9.00;99.90;;;;;;5025117;28;19913;-93
2022/01/01 11:45:58;;;;;;;;;;;9.10;99.90;;;;;;5031892;28;19920;-94
2022/01/01 11:48:41;;;;;;;;;;;9.20;99.90;;;;;;5031347;28;19928;-94
2022/01/01 11:51:18;;;;;;;;;;;9.20;99.90;;;;;;5025422;28;19928;-94
2022/01/01 11:54:02;;;;;;;;;;;9.30;99.90;;;;;;5035318;28;19925;-92
2022/01/01 11:56:51;;;;;;;;;;;9.40;99.90;;;;;;5029226;28;19916;-88
2022/01/01 11:59:19;;;;;;;;;;;9.50;99.90;;;;;;5044122;28;20031;-79
2022/01/01 12:01:45;;;;;;;;;;;9.60;99.20;;;;;;5026850;28;19921;-79
2022/01/01 12:04:31;;;;;;;;;;;9.60;99.90;;;;;;5039569;28;20665;-86
2022/01/01 12:07:01;;;;;;;;;;;9.70;99.90;;;;;;5027885;28;19969;-85
2022/01/01 12:09:26;;;;;;;;;;;9.70;99.10;;;;;;5026347;28;19909;-83
2022/01/01 12:11:54;;;;;;;;;;;9.70;99.50;;;;;;5040148;28;20385;-85
2022/01/01 12:14:23;;;;;;;;;;;9.80;98.90;;;;;;5023275;28;19913;-84
2022/01/01 12:16:49;;;;;;;;;;;9.80;97.80;;;;;;5045631;28;19913;-83
2022/01/01 12:19:19;;;;;;;;;;;9.90;98.60;;;;;;5025170;28;19930;-82
2022/01/01 12:21:44;;;;;;;;;;;9.90;97.20;;;;;;5022750;28;19913;-82
2022/01/01 12:24:16;;;;;;;;;;;9.90;96.50;;;;;;5059956;28;19913;-83
2022/01/01 12:26:49;;;;;;;;;;;9.90;97.80;;;;;;5026467;28;19913;-83
2022/01/01 12:29:20;;;;;;;;;;;9.90;97.90;;;;;;5025902;28;20360;-81
2022/01/01 12:31:58;;;;;;;;;;;10.00;98.20;;;;;;5047390;28;19912;-82
2022/01/01 12:34:24;;;;;;;;;;;10.00;98.10;;;;;;5044514;28;19989;-81
2022/01/01 12:36:51;;;;;;;;;;;10.10;96.00;;;;;;5015542;28;20384;-74
2022/01/01 12:39:17;;;;;;;;;;;10.20;94.80;;;;;;5045496;28;19921;-74
2022/01/01 12:41:46;;;;;;;;;;;10.10;94.20;;;;;;5024863;28;19983;-74
2022/01/01 12:44:20;;;;;;;;;;;10.10;94.10;;;;;;5027517;28;19908;-74
2022/01/01 12:46:52;;;;;;;;;;;10.20;95.30;;;;;;5046488;28;19920;-74
2022/01/01 12:49:17;;;;;;;;;;;10.20;95.00;;;;;;5044430;28;19920;-74
2022/01/01 12:51:44;;;;;;;;;;;10.10;93.90;;;;;;5045347;28;19921;-75
2022/01/01 12:54:11;;;;;;;;;;;10.20;95.50;;;;;;5026776;28;19939;-76
2022/01/01 12:56:38;;;;;;;;;;;10.20;94.50;;;;;;5051173;28;20442;-73
2022/01/01 12:59:07;;;;;;;;;;;10.40;93.30;;;;;;5031832;28;19963;-73
2022/01/01 13:01:33;;;;;;;;;;;10.40;94.20;;;;;;5043993;28;19921;-73
2022/01/01 13:04:00;;;;;;;;;;;10.50;93.50;;;;;;5025154;28;19966;-76
2022/01/01 13:06:31;;;;;;;;;;;10.40;94.50;;;;;;5040538;28;19924;-76
2022/01/01 13:08:58;;;;;;;;;;;10.60;95.90;;;;;;5029489;28;20402;-75
2022/01/01 13:11:24;;;;;;;;;;;10.80;94.10;;;;;;5043414;28;19966;-75
2022/01/01 13:13:49;;;;;;;;;;;10.90;93.70;;;;;;5046844;28;20334;-74
2022/01/01 13:16:15;;;;;;;;;;;10.90;93.40;;;;;;5041147;28;19999;-74
2022/01/01 13:18:40;;;;;;;;;;;10.80;94.50;;;;;;5041755;28;20364;-73
2022/01/01 13:21:06;;;;;;;;;;;10.90;93.90;;;;;;5028992;28;19920;-79
2022/01/01 13:23:32;;;;;;;;;;;11.00;93.20;;;;;;5047480;28;20428;-79
2022/01/01 13:25:58;;;;;;;;;;;11.10;91.60;;;;;;5027226;28;19997;-77
2022/01/01 13:28:29;;;;;;;;;;;11.10;91.60;;;;;;5041039;28;19916;-79
2022/01/01 13:30:55;;;;;;;;;;;11.10;91.20;;;;;;5033747;28;19932;-79
2022/01/01 13:33:22;;;;;;;;;;;11.10;90.00;;;;;;5009057;28;20019;-78
2022/01/01 13:35:49;;;;;;;;;;;11.10;90.10;;;;;;5041465;28;19928;-78
2022/01/01 13:38:15;;;;;;;;;;;11.20;91.20;;;;;;5033688;28;19971;-79
2022/01/01 13:40:48;;;;;;;;;;;11.20;92.50;;;;;;5046024;28;19913;-81
2022/01/01 13:43:13;;;;;;;;;;;11.30;92.50;;;;;;5051428;28;19905;-78
2022/01/01 13:45:39;;;;;;;;;;;11.30;91.30;;;;;;5050667;28;19975;-80
2022/01/01 13:48:07;;;;;;;;;;;11.40;91.80;;;;;;5014002;28;20361;-78
2022/01/01 13:50:39;;;;;;;;;;;11.30;91.20;;;;;;5030558;28;19909;-79
2022/01/01 13:53:06;;;;;;;;;;;11.30;90.80;;;;;;5035654;28;20011;-79
2022/01/01 13:55:33;;;;;;;;;;;11.20;91.10;;;;;;5023729;28;19921;-79
2022/01/01 13:58:01;;;;;;;;;;;11.30;91.40;;;;;;5042123;28;19921;-79
2022/01/01 14:00:27;;;;;;;;;;;11.20;92.50;;;;;;5039748;28;19913;-80
2022/01/01 14:02:56;;;;;;;;;;;11.20;91.70;;;;;;5024857;28;20295;-78
2022/01/01 14:05:23;;;;;;;;;;;11.10;92.70;;;;;;5039549;28;20380;-77
2022/01/01 14:07:49;;;;;;;;;;;11.00;93.10;;;;;;5024410;28;20379;-77
2022/01/01 14:10:15;;;;;;;;;;;11.10;93.10;;;;;;5024863;28;19952;-80
2022/01/01 14:12:42;;;;;;;;;;;11.00;93.10;;;;;;5039613;28;19916;-79
2022/01/01 14:15:15;;;;;;;;;;;11.00;92.80;;;;;;5041461;28;19916;-78
2022/01/01 14:17:55;;;;;;;;;;;11.00;92.90;;;;;;5022686;28;20397;-79
2022/01/01 14:20:23;;;;;;;;;;;11.00;93.00;;;;;;5024419;28;19995;-79
2022/01/01 14:22:49;;;;;;;;;;;10.90;94.00;;;;;;5042559;28;19912;-80
2022/01/01 14:25:15;;;;;;;;;;;10.80;94.40;;;;;;5043913;28;20757;-78
2022/01/01 14:27:41;;;;;;;;;;;10.70;95.30;;;;;;5025949;28;20019;-77
2022/01/01 14:30:07;;;;;;;;;;;10.70;94.40;;;;;;5039807;28;19913;-78
2022/01/01 14:32:33;;;;;;;;;;;10.60;93.80;;;;;;5023433;28;19978;-80
2022/01/01 14:34:58;;;;;;;;;;;10.70;94.40;;;;;;5047230;28;20371;-80